createdAt,value
2023-02-14T00:32:10.376Z,0
2023-02-14T00:32:51.284Z,0
2023-02-14T00:33:32.284Z,0
2023-02-14T00:35:35.323Z,0
2023-02-14T00:36:16.321Z,0
2023-02-14T00:36:57.380Z,0
2023-02-14T00:37:38.303Z,0
2023-02-14T00:38:19.261Z,0
2023-02-14T00:43:35.858Z,0
2023-02-14T00:44:16.318Z,0
2023-02-14T00:44:56.796Z,0
2023-02-14T00:50:20.684Z,0
2023-02-14T00:51:01.329Z,0
2023-02-14T00:51:41.655Z,0
2023-02-14T00:52:22.180Z,0
2023-02-14T00:53:02.667Z,0
2023-02-14T00:53:43.142Z,0
2023-02-14T00:54:23.612Z,0
2023-02-14T00:55:04.101Z,0
2023-02-14T00:55:44.560Z,0
2023-02-14T00:56:25.090Z,0
2023-02-14T01:03:50.518Z,0
2023-02-14T01:04:31.067Z,0
2023-02-14T01:05:11.542Z,0
2023-02-14T01:05:52.035Z,0
2023-02-14T01:06:32.533Z,0
2023-02-14T01:07:13.031Z,0
2023-02-14T01:07:53.539Z,0
2023-02-14T01:08:34.018Z,0
2023-02-14T01:09:14.495Z,0
2023-02-14T01:09:54.981Z,0
2023-02-14T01:10:35.455Z,0
2023-02-14T01:17:20.546Z,0
2023-02-14T01:21:20.982Z,0
2023-02-14T01:22:01.513Z,0
2023-02-14T01:22:41.868Z,0
2023-02-14T01:28:05.741Z,0
2023-02-14T01:28:46.275Z,0
2023-02-14T01:29:26.791Z,0
2023-02-14T01:30:07.323Z,0
2023-02-14T01:30:47.824Z,0
2023-02-14T01:31:28.367Z,0
2023-02-14T01:32:08.820Z,0
2023-02-14T01:32:49.265Z,0
2023-02-14T01:33:29.831Z,0
2023-02-14T01:34:10.298Z,0
2023-02-14T01:41:35.765Z,0
2023-02-14T01:42:16.331Z,0
2023-02-14T01:42:56.739Z,0
2023-02-14T01:43:37.199Z,0
2023-02-14T01:44:17.678Z,0
2023-02-14T01:44:58.164Z,0
2023-02-14T01:45:38.717Z,0
2023-02-14T01:48:17.754Z,0
2023-02-14T01:48:58.178Z,0
2023-02-14T01:49:38.581Z,0
2023-02-14T01:54:22.017Z,0
2023-02-14T01:55:02.494Z,0
2023-02-14T01:55:42.974Z,0
2023-02-14T01:56:23.421Z,0
2023-02-14T01:57:03.943Z,0
2023-02-14T01:57:44.370Z,0
2023-02-14T01:58:24.892Z,0
2023-02-14T01:59:05.356Z,0
2023-02-14T01:59:45.861Z,0
2023-02-14T02:00:26.441Z,0
2023-02-14T02:01:07.037Z,0
2023-02-14T02:08:32.204Z,0
2023-02-14T02:09:12.755Z,0
2023-02-14T02:09:53.203Z,0
2023-02-14T02:10:33.761Z,0
2023-02-14T02:11:14.193Z,0
2023-02-14T02:11:54.680Z,0
2023-02-14T02:12:35.169Z,0
2023-02-14T02:13:15.645Z,0
2023-02-14T02:13:56.118Z,0
2023-02-14T02:14:36.628Z,0
2023-02-14T02:22:42.416Z,0
2023-02-14T02:23:22.916Z,0
2023-02-14T02:24:03.369Z,0
2023-02-14T02:24:43.856Z,0
2023-02-14T02:25:24.311Z,0
2023-02-14T02:26:04.789Z,0
2023-02-14T02:26:45.235Z,0
2023-02-14T02:27:26.153Z,0
2023-02-14T02:28:06.190Z,0
2023-02-14T02:28:46.706Z,0
2023-02-14T02:36:12.199Z,0
2023-02-14T02:36:52.623Z,0
2023-02-14T02:37:33.082Z,0
2023-02-14T02:38:13.574Z,0
2023-02-14T02:38:54.085Z,0
2023-02-14T02:39:34.623Z,0
2023-02-14T02:40:15.027Z,0
2023-02-14T02:40:55.514Z,0
2023-02-14T02:41:36.027Z,0
2023-02-14T02:42:16.479Z,0
2023-02-14T02:42:57.083Z,0
2023-02-14T02:50:22.275Z,0
2023-02-14T02:51:02.752Z,0
2023-02-14T02:51:43.237Z,0
2023-02-14T02:52:23.708Z,0
2023-02-14T02:53:04.227Z,0
2023-02-14T02:53:44.637Z,0
2023-02-14T02:55:05.660Z,0
2023-02-14T02:55:46.132Z,0
2023-02-14T02:56:26.635Z,0
2023-02-14T03:00:46.145Z,0
2023-02-14T03:01:27.213Z,0
2023-02-14T03:02:06.972Z,0
2023-02-14T03:07:30.751Z,0
2023-02-14T03:08:11.321Z,0
2023-02-14T03:08:52.637Z,0
2023-02-14T03:09:33.162Z,0
2023-02-14T03:10:13.597Z,0
2023-02-14T03:10:54.075Z,0
2023-02-14T03:11:34.552Z,0
2023-02-14T03:12:15.056Z,0
2023-02-14T03:12:55.581Z,0
2023-02-14T03:20:20.845Z,0
2023-02-14T03:21:01.593Z,0
2023-02-14T03:21:41.796Z,0
2023-02-14T03:22:22.254Z,0
2023-02-14T03:23:02.752Z,0
2023-02-14T03:23:43.233Z,0
2023-02-14T03:24:23.794Z,0
2023-02-14T03:25:04.227Z,0
2023-02-14T03:26:25.133Z,0
2023-02-14T03:34:30.814Z,0
2023-02-14T03:35:11.272Z,0
2023-02-14T03:36:32.232Z,0
2023-02-14T03:37:12.698Z,0
2023-02-14T03:37:53.170Z,0
2023-02-14T03:38:33.673Z,0
2023-02-14T03:39:14.121Z,0
2023-02-14T03:39:54.574Z,0
2023-02-14T03:40:35.092Z,0
2023-02-14T03:41:15.520Z,0
2023-02-14T03:48:40.812Z,0
2023-02-14T03:49:21.226Z,0
2023-02-14T03:50:01.741Z,0
2023-02-14T03:50:42.211Z,0
2023-02-14T03:51:22.650Z,0
2023-02-14T03:52:03.122Z,0
2023-02-14T03:52:43.601Z,0
2023-02-14T03:53:24.119Z,0
2023-02-14T03:54:04.568Z,0
2023-02-14T03:54:45.062Z,0
2023-02-14T03:55:25.533Z,0
2023-02-14T04:01:30.735Z,0
2023-02-14T04:02:50.805Z,0
2023-02-14T04:03:31.356Z,0
2023-02-14T04:04:11.738Z,0
2023-02-14T04:04:52.259Z,0
2023-02-14T04:05:32.738Z,0
2023-02-14T04:06:54.312Z,0
2023-02-14T04:07:34.811Z,0
2023-02-14T04:08:15.315Z,0
2023-02-14T04:15:40.670Z,0
2023-02-14T04:16:21.205Z,0
2023-02-14T04:17:01.612Z,0
2023-02-14T04:17:42.082Z,0
2023-02-14T04:18:22.566Z,0
2023-02-14T04:19:03.032Z,0
2023-02-14T04:19:43.526Z,0
2023-02-14T04:20:24.063Z,0
2023-02-14T04:21:04.523Z,0
2023-02-14T04:21:44.986Z,0
2023-02-14T04:22:25.458Z,0
2023-02-14T04:29:50.728Z,0
2023-02-14T04:30:31.316Z,0
2023-02-14T04:31:11.810Z,0
2023-02-14T04:31:52.302Z,0
2023-02-14T04:32:32.655Z,0
2023-02-14T04:33:13.121Z,0
2023-02-14T04:33:53.597Z,0
2023-02-14T04:34:34.067Z,0
2023-02-14T04:35:14.551Z,0
2023-02-14T04:35:55.033Z,0
2023-02-14T04:44:00.744Z,0
2023-02-14T04:44:41.221Z,0
2023-02-14T04:45:21.700Z,0
2023-02-14T04:46:02.202Z,0
2023-02-14T04:46:42.764Z,0
2023-02-14T04:47:23.110Z,0
2023-02-14T04:48:03.626Z,0
2023-02-14T04:48:44.102Z,0
2023-02-14T04:49:24.541Z,0
2023-02-14T04:50:05.020Z,0
2023-02-14T04:50:45.473Z,0
2023-02-14T04:56:50.618Z,0
2023-02-14T04:57:31.095Z,0
2023-02-14T04:58:11.648Z,0
2023-02-14T04:58:52.054Z,0
2023-02-14T04:59:32.579Z,0
2023-02-14T05:00:13.057Z,0
2023-02-14T05:00:53.703Z,0
2023-02-14T05:01:34.053Z,0
2023-02-14T05:02:14.657Z,0
2023-02-14T05:02:55.015Z,0
2023-02-14T05:10:20.957Z,0
2023-02-14T05:11:01.761Z,0
2023-02-14T05:11:41.914Z,0
2023-02-14T05:12:22.396Z,0
2023-02-14T05:13:02.902Z,0
2023-02-14T05:13:43.391Z,0
2023-02-14T05:14:23.878Z,0
2023-02-14T05:15:04.370Z,0
2023-02-14T05:15:44.854Z,0
2023-02-14T05:16:25.442Z,0
2023-02-14T05:23:42.433Z,0
2023-02-14T05:24:23.851Z,0
2023-02-14T05:25:04.351Z,0
2023-02-14T05:29:07.256Z,0
2023-02-14T05:29:47.815Z,0
2023-02-14T05:30:28.352Z,0
2023-02-14T05:31:08.742Z,0
2023-02-14T05:31:49.183Z,0
2023-02-14T05:32:29.639Z,0
2023-02-14T05:33:10.160Z,0
2023-02-14T05:33:50.626Z,0
2023-02-14T05:34:31.150Z,0
2023-02-14T05:35:11.623Z,0
2023-02-14T05:40:35.567Z,0
2023-02-14T05:41:16.067Z,0
2023-02-14T05:41:58.472Z,0
2023-02-14T05:42:37.742Z,0
2023-02-14T05:43:18.284Z,0
2023-02-14T05:43:59.669Z,0
2023-02-14T05:46:44.453Z,0
2023-02-14T05:47:24.978Z,0
2023-02-14T05:48:05.426Z,0
2023-02-14T05:48:45.891Z,0
2023-02-14T05:49:26.354Z,0
2023-02-14T05:50:06.827Z,0
2023-02-14T05:50:47.310Z,0
2023-02-14T06:31:44.949Z,0
2023-02-14T06:32:25.246Z,0
2023-02-14T06:33:05.742Z,0
2023-02-14T06:36:29.170Z,0
2023-02-14T06:37:09.674Z,0
2023-02-14T06:37:50.178Z,0
2023-02-14T06:38:31.448Z,0
2023-02-14T06:39:11.932Z,0
2023-02-14T06:39:52.472Z,0
2023-02-14T06:40:32.920Z,0
2023-02-14T06:41:13.410Z,0
2023-02-14T06:41:53.869Z,0
2023-02-14T06:47:59.311Z,0
2023-02-14T06:48:39.926Z,0
2023-02-14T06:49:20.343Z,0
2023-02-14T06:50:00.873Z,0
2023-02-14T06:50:41.360Z,0
2023-02-14T06:51:21.844Z,0
2023-02-14T06:52:02.319Z,0
2023-02-14T06:52:43.018Z,0
2023-02-14T06:53:23.398Z,0
2023-02-14T06:54:03.911Z,0
2023-02-14T07:00:49.166Z,10
2023-02-14T07:01:29.810Z,10
2023-02-14T07:02:10.188Z,10
2023-02-14T07:02:50.784Z,10
2023-02-14T07:03:31.206Z,10
2023-02-14T07:04:11.709Z,10
2023-02-14T07:04:52.383Z,15
2023-02-14T07:05:32.722Z,15
2023-02-14T07:06:13.236Z,15
2023-02-14T07:06:53.730Z,15
2023-02-14T07:10:59.808Z,20
2023-02-14T07:11:40.104Z,20
2023-02-14T07:12:20.611Z,20
2023-02-14T07:13:01.124Z,20
2023-02-14T07:13:41.623Z,20
2023-02-14T07:14:22.131Z,25
2023-02-14T07:15:02.628Z,25
2023-02-14T07:15:43.193Z,25
2023-02-14T07:16:23.687Z,25
2023-02-14T07:23:49.134Z,30
2023-02-14T07:24:29.806Z,35
2023-02-14T07:25:10.240Z,35
2023-02-14T07:25:50.791Z,35
2023-02-14T07:26:32.708Z,35
2023-02-14T07:27:13.276Z,35
2023-02-14T07:27:53.731Z,35
2023-02-14T07:33:59.444Z,35
2023-02-14T07:34:39.935Z,35
2023-02-14T07:35:20.426Z,35
2023-02-14T07:36:01.010Z,35
2023-02-14T07:36:41.445Z,35
2023-02-14T07:37:21.959Z,35
2023-02-14T07:38:02.444Z,35
2023-02-14T07:38:42.965Z,35
2023-02-14T07:39:23.526Z,35
2023-02-14T07:40:04.074Z,35
2023-02-14T07:45:29.500Z,35
2023-02-14T07:46:10.244Z,35
2023-02-14T07:46:50.715Z,35
2023-02-14T07:47:31.253Z,35
2023-02-14T07:48:11.768Z,35
2023-02-14T07:48:52.355Z,35
2023-02-14T07:49:32.884Z,35
2023-02-14T07:50:13.333Z,35
2023-02-14T07:50:53.809Z,35
2023-02-14T07:56:19.463Z,35
2023-02-14T07:57:00.774Z,35
2023-02-14T07:57:41.867Z,35
2023-02-14T07:58:22.529Z,35
2023-02-14T07:59:03.600Z,35
2023-02-14T08:05:49.137Z,35
2023-02-14T08:06:29.625Z,35
2023-02-14T08:07:10.166Z,35
2023-02-14T08:07:51.724Z,35
2023-02-14T08:09:12.672Z,35
2023-02-14T08:09:53.233Z,35
2023-02-14T08:10:33.780Z,35
2023-02-14T08:17:59.552Z,40
2023-02-14T08:18:40.023Z,40
2023-02-14T08:19:20.558Z,40
2023-02-14T08:20:01.094Z,40
2023-02-14T08:20:41.644Z,40
2023-02-14T08:21:22.137Z,40
2023-02-14T08:22:02.822Z,40
2023-02-14T08:22:43.417Z,40
2023-02-14T08:23:23.900Z,40
2023-02-14T08:30:09.388Z,40
2023-02-14T08:30:49.790Z,40
2023-02-14T08:32:10.956Z,40
2023-02-14T08:32:51.449Z,40
2023-02-14T08:33:31.915Z,40
2023-02-14T08:34:13.204Z,40
2023-02-14T08:34:53.684Z,40
2023-02-14T08:39:39.399Z,40
2023-02-14T08:40:19.924Z,40
2023-02-14T08:41:00.815Z,40
2023-02-14T08:42:21.608Z,40
2023-02-14T08:43:02.158Z,40
2023-02-14T08:43:42.681Z,40
2023-02-14T08:44:23.194Z,40
2023-02-14T08:45:03.753Z,40
2023-02-14T08:51:49.102Z,40
2023-02-14T08:52:29.676Z,40
2023-02-14T08:53:10.187Z,40
2023-02-14T08:53:50.792Z,40
2023-02-14T08:54:31.311Z,40
2023-02-14T08:55:11.870Z,40
2023-02-14T08:55:52.332Z,40
2023-02-14T08:56:32.839Z,40
2023-02-14T08:57:13.377Z,40
2023-02-14T08:57:53.870Z,40
2023-02-14T09:04:39.664Z,40
2023-02-14T09:05:20.017Z,40
2023-02-14T09:06:00.888Z,40
2023-02-14T09:06:42.528Z,40
2023-02-14T09:07:24.044Z,40
2023-02-14T09:11:29.451Z,40
2023-02-14T09:12:09.987Z,40
2023-02-14T09:12:51.161Z,40
2023-02-14T09:13:31.695Z,40
2023-02-14T09:14:12.180Z,40
2023-02-14T09:14:52.702Z,40
2023-02-14T09:15:33.319Z,40
2023-02-14T09:16:13.918Z,40
2023-02-14T09:22:59.136Z,40
2023-02-14T09:23:39.670Z,40
2023-02-14T09:24:20.159Z,40
2023-02-14T09:25:00.713Z,40
2023-02-14T09:25:41.286Z,40
2023-02-14T09:26:22.377Z,40
2023-02-14T09:27:03.982Z,40
2023-02-14T09:33:09.106Z,40
2023-02-14T09:33:49.622Z,40
2023-02-14T09:34:30.184Z,40
2023-02-14T09:35:10.662Z,40
2023-02-14T09:35:51.175Z,40
2023-02-14T09:36:31.676Z,40
2023-02-14T09:37:14.246Z,40
2023-02-14T09:40:39.454Z,40
2023-02-14T09:41:19.935Z,40
2023-02-14T09:42:00.464Z,40
2023-02-14T09:42:41.027Z,40
2023-02-14T09:43:21.584Z,40
2023-02-14T09:44:02.613Z,40
2023-02-14T09:44:43.173Z,40
2023-02-14T09:45:23.963Z,40
2023-02-14T09:52:09.202Z,40
2023-02-14T09:52:49.728Z,40
2023-02-14T09:53:30.863Z,40
2023-02-14T09:54:11.419Z,40
2023-02-14T09:54:51.896Z,40
2023-02-14T09:55:32.636Z,40
2023-02-14T09:56:13.149Z,40
2023-02-14T09:56:53.776Z,40
2023-02-14T10:02:19.556Z,35
2023-02-14T10:03:00.098Z,40
2023-02-14T10:03:40.621Z,35
2023-02-14T10:04:21.131Z,35
2023-02-14T10:05:01.786Z,35
2023-02-14T10:05:42.221Z,35
2023-02-14T10:06:22.786Z,35
2023-02-14T10:07:04.064Z,35
2023-02-14T10:13:49.574Z,35
2023-02-14T10:14:30.111Z,35
2023-02-14T10:15:10.651Z,35
2023-02-14T10:15:51.208Z,35
2023-02-14T10:16:31.817Z,35
2023-02-14T10:17:12.321Z,35
2023-02-14T10:17:52.868Z,35
2023-02-14T10:19:13.975Z,35
2023-02-14T10:25:19.641Z,35
2023-02-14T10:26:00.100Z,35
2023-02-14T10:26:40.589Z,35
2023-02-14T10:27:21.213Z,35
2023-02-14T10:28:01.762Z,35
2023-02-14T10:28:42.329Z,35
2023-02-14T10:29:22.862Z,35
2023-02-14T10:30:03.537Z,35
2023-02-14T10:30:44.188Z,35
2023-02-14T10:34:18.928Z,35
2023-02-14T10:35:00.296Z,35
2023-02-14T10:35:41.326Z,35
2023-02-14T10:39:42.072Z,35
2023-02-14T10:40:22.474Z,35
2023-02-14T10:41:02.961Z,35
2023-02-14T10:43:57.203Z,35
2023-02-14T10:44:37.993Z,35
2023-02-14T10:45:18.632Z,35
2023-02-14T10:48:01.358Z,35
2023-02-14T10:48:41.931Z,35
2023-02-14T10:49:22.460Z,35
2023-02-14T10:50:03.238Z,35
2023-02-14T10:50:44.468Z,35
2023-02-14T10:54:13.623Z,35
2023-02-14T10:54:54.145Z,35
2023-02-14T10:55:34.807Z,35
2023-02-14T10:58:58.517Z,35
2023-02-14T10:59:39.008Z,35
2023-02-14T11:00:19.656Z,35
2023-02-14T11:01:00.561Z,35
2023-02-14T11:01:40.904Z,35
2023-02-14T11:02:21.977Z,35
2023-02-14T11:05:41.257Z,35
2023-02-14T11:06:21.895Z,35
2023-02-14T11:07:02.458Z,35
2023-02-14T11:07:43.012Z,35
2023-02-14T11:11:46.241Z,35
2023-02-14T11:12:26.778Z,35
2023-02-14T11:13:07.321Z,35
2023-02-14T11:13:47.902Z,35
2023-02-14T11:14:29.424Z,35
2023-02-14T11:17:56.306Z,35
2023-02-14T11:18:38.061Z,35
2023-02-14T11:19:18.908Z,35
2023-02-14T11:19:59.779Z,35
2023-02-14T11:20:40.882Z,35
2023-02-14T11:24:46.044Z,35
2023-02-14T11:25:28.136Z,35
2023-02-14T11:26:09.935Z,35
2023-02-14T11:34:48.411Z,35
2023-02-14T11:35:29.325Z,35
2023-02-14T11:36:11.535Z,35
2023-02-14T11:36:53.393Z,35
2023-02-14T11:37:34.595Z,35
2023-02-14T11:38:15.772Z,35
2023-02-14T11:38:57.016Z,35
2023-02-14T11:42:57.980Z,35
2023-02-14T11:43:33.692Z,35
2023-02-14T11:44:14.350Z,35
2023-02-14T11:46:56.915Z,35
2023-02-14T11:47:37.537Z,35
2023-02-14T11:48:22.297Z,35
2023-02-14T11:48:59.387Z,35
2023-02-14T11:49:40.406Z,35
2023-02-14T11:50:21.230Z,35
2023-02-14T12:34:53.303Z,30
2023-02-14T12:37:26.518Z,35
2023-02-14T12:38:07.138Z,35
2023-02-14T12:38:47.594Z,35
2023-02-14T12:39:28.811Z,35
2023-02-14T12:42:11.103Z,30
2023-02-14T12:42:51.682Z,30
2023-02-14T12:43:32.226Z,30
2023-02-14T12:44:12.740Z,30
2023-02-14T12:44:53.228Z,30
2023-02-14T12:45:33.753Z,30
2023-02-14T12:46:14.336Z,30
2023-02-14T12:46:55.116Z,30
2023-02-14T12:47:35.697Z,30
2023-02-14T12:54:21.120Z,30
2023-02-14T12:55:01.659Z,30
2023-02-14T12:55:42.214Z,30
2023-02-14T12:56:22.660Z,30
2023-02-14T12:57:03.252Z,30
2023-02-14T12:57:43.738Z,30
2023-02-14T13:01:28.266Z,30
2023-02-14T13:02:03.491Z,30
2023-02-14T13:02:44.023Z,30
2023-02-14T13:06:07.701Z,30
2023-02-14T13:06:47.678Z,30
2023-02-14T13:07:28.324Z,30
2023-02-14T13:08:08.969Z,30
2023-02-14T13:08:49.512Z,30
2023-02-14T13:09:30.227Z,30
2023-02-14T13:10:10.780Z,30
2023-02-14T13:10:51.616Z,30
2023-02-14T13:11:32.518Z,30
2023-02-14T13:18:09.774Z,30
2023-02-14T13:18:50.274Z,30
2023-02-14T13:19:30.834Z,30
2023-02-14T13:23:35.472Z,30
2023-02-14T13:24:16.114Z,30
2023-02-14T13:24:56.670Z,30
2023-02-14T13:25:37.343Z,30
2023-02-14T13:26:17.990Z,30
2023-02-14T13:26:58.539Z,30
2023-02-14T13:27:39.180Z,30
2023-02-14T13:28:19.812Z,30
2023-02-14T13:33:45.887Z,30
2023-02-14T13:34:26.338Z,30
2023-02-14T13:35:06.867Z,30
2023-02-14T13:35:48.524Z,30
2023-02-14T13:36:30.994Z,30
2023-02-14T13:37:09.953Z,30
2023-02-14T13:45:48.878Z,30
2023-02-14T13:46:29.560Z,30
2023-02-14T13:47:09.931Z,30
2023-02-14T13:51:13.331Z,25
2023-02-14T13:51:53.928Z,25
2023-02-14T13:52:34.454Z,25
2023-02-14T13:53:14.967Z,25
2023-02-14T13:53:55.666Z,25
2023-02-14T13:54:36.398Z,25
2023-02-14T13:55:16.809Z,25
2023-02-14T13:55:57.394Z,25
2023-02-14T13:56:37.924Z,25
2023-02-14T14:02:43.410Z,25
2023-02-14T14:03:24.237Z,25
2023-02-14T14:04:04.956Z,25
2023-02-14T14:04:45.507Z,25
2023-02-14T14:05:27.246Z,25
2023-02-14T14:08:13.363Z,25
2023-02-14T14:08:54.328Z,25
2023-02-14T14:09:34.880Z,25
2023-02-14T14:10:15.545Z,25
2023-02-14T14:10:56.173Z,25
2023-02-14T14:11:36.712Z,25
2023-02-14T14:12:57.887Z,25
2023-02-14T14:17:43.632Z,20
2023-02-14T14:18:24.274Z,20
2023-02-14T14:19:04.867Z,20
2023-02-14T14:19:47.038Z,20
2023-02-14T14:23:24.815Z,20
2023-02-14T14:24:05.543Z,20
2023-02-14T14:24:46.098Z,20
2023-02-14T14:25:26.773Z,20
2023-02-14T14:27:29.232Z,20
2023-02-14T14:28:09.870Z,20
2023-02-14T14:28:50.394Z,20
2023-02-14T14:29:31.031Z,20
2023-02-14T14:30:11.640Z,20
2023-02-14T14:35:40.719Z,20
2023-02-14T14:36:22.501Z,20
2023-02-14T14:37:04.159Z,20
2023-02-14T14:37:46.436Z,20
2023-02-14T14:38:27.723Z,20
2023-02-14T14:39:08.659Z,20
2023-02-14T14:39:49.676Z,20
2023-02-14T14:40:30.782Z,20
2023-02-14T14:41:11.834Z,20
2023-02-14T14:44:37.518Z,20
2023-02-14T14:45:18.456Z,25
2023-02-14T14:45:59.901Z,25
2023-02-14T14:46:40.640Z,25
2023-02-14T14:47:21.579Z,25
2023-02-14T14:50:07.583Z,25
2023-02-14T14:50:48.758Z,25
2023-02-14T14:51:30.032Z,25
2023-02-14T14:52:11.940Z,25
2023-02-14T14:54:57.856Z,25
2023-02-14T14:55:38.850Z,25
2023-02-14T14:56:20.904Z,25
2023-02-14T14:57:01.901Z,25
2023-02-14T15:02:19.374Z,25
2023-02-14T15:02:59.913Z,25
2023-02-14T15:03:41.306Z,25
2023-02-14T15:07:04.036Z,25
2023-02-14T15:07:44.599Z,25
2023-02-14T15:08:25.131Z,25
2023-02-14T15:09:05.675Z,25
2023-02-14T15:09:47.194Z,25
2023-02-14T15:10:27.736Z,30
2023-02-14T15:13:21.076Z,55
2023-02-14T15:14:01.688Z,55
2023-02-14T15:14:42.291Z,50
2023-02-14T15:20:01.351Z,40
2023-02-14T15:20:42.664Z,40
2023-02-14T15:21:23.665Z,35
2023-02-14T15:22:45.713Z,35
2023-02-14T15:23:26.758Z,35
2023-02-14T15:24:07.937Z,35
2023-02-14T15:24:49.232Z,35
2023-02-14T15:25:30.358Z,35
2023-02-14T15:32:11.666Z,45
2023-02-14T15:32:51.791Z,45
2023-02-14T15:33:32.295Z,40
2023-02-14T15:38:16.073Z,50
2023-02-14T15:38:56.690Z,50
2023-02-14T15:39:37.144Z,50
2023-02-14T15:42:49.140Z,55
2023-02-14T15:43:29.492Z,55
2023-02-14T15:44:10.039Z,55
2023-02-14T15:46:52.058Z,55
2023-02-14T15:47:32.657Z,55
2023-02-14T15:48:13.109Z,50
2023-02-14T15:48:53.644Z,50
2023-02-14T15:49:34.216Z,50
2023-02-14T15:50:14.725Z,50
2023-02-14T15:50:55.265Z,50
2023-02-14T15:51:35.818Z,50
2023-02-14T15:52:16.341Z,50
2023-02-14T15:59:45.504Z,135
2023-02-14T16:06:31.907Z,45
2023-02-14T16:07:12.347Z,25
2023-02-14T16:07:52.829Z,15
2023-02-14T16:08:33.324Z,15
2023-02-14T16:09:13.825Z,10
2023-02-14T16:09:54.341Z,10
2023-02-14T16:10:34.878Z,10
2023-02-14T16:11:15.388Z,10
2023-02-14T16:11:55.911Z,10
2023-02-14T16:12:36.394Z,5
2023-02-14T16:20:02.137Z,5
2023-02-14T16:22:41.156Z,5
2023-02-14T16:23:20.996Z,5
2023-02-14T16:24:01.938Z,5
2023-02-14T16:27:25.127Z,5
2023-02-14T16:28:05.834Z,0
2023-02-14T16:28:46.387Z,0
2023-02-14T16:29:26.988Z,0
2023-02-14T16:30:07.451Z,0
2023-02-14T16:30:48.856Z,0
2023-02-14T16:31:29.480Z,0
2023-02-14T16:32:17.661Z,0
2023-02-14T16:35:35.113Z,0
2023-02-14T16:36:15.709Z,0
2023-02-14T16:38:55.151Z,0
2023-02-14T16:39:35.876Z,0
2023-02-14T16:40:16.364Z,0
2023-02-14T16:46:52.660Z,0
2023-02-14T16:47:33.084Z,0
2023-02-14T16:48:13.588Z,0
2023-02-14T16:49:34.637Z,0
2023-02-14T16:50:15.133Z,0
2023-02-14T16:50:55.634Z,0
2023-02-14T16:51:36.121Z,0
2023-02-14T16:52:16.649Z,0
2023-02-14T16:52:57.146Z,0
2023-02-14T17:00:22.773Z,0
2023-02-14T17:01:03.537Z,0
2023-02-14T17:01:43.887Z,0
2023-02-14T17:02:24.557Z,0
2023-02-14T17:03:04.932Z,0
2023-02-14T17:03:45.394Z,0
2023-02-14T17:04:25.978Z,0
2023-02-14T17:05:06.594Z,0
2023-02-14T17:12:32.849Z,0
2023-02-14T17:13:13.419Z,0
2023-02-14T17:13:53.958Z,0
2023-02-14T17:14:34.473Z,0
2023-02-14T17:15:14.967Z,0
2023-02-14T17:15:55.486Z,0
2023-02-14T17:16:35.974Z,0
2023-02-14T17:17:16.459Z,0
2023-02-14T17:17:56.967Z,0
2023-02-14T17:18:37.461Z,0
2023-02-14T17:26:03.005Z,0
2023-02-14T17:26:43.483Z,0
2023-02-14T17:27:24.023Z,0
2023-02-14T17:28:04.534Z,0
2023-02-14T17:28:45.050Z,0
2023-02-14T17:30:06.326Z,0
2023-02-14T17:30:46.704Z,0
2023-02-14T17:31:27.510Z,0
2023-02-14T17:38:12.792Z,0
2023-02-14T17:38:53.320Z,0
2023-02-14T17:39:33.804Z,0
2023-02-14T17:40:14.364Z,0
2023-02-14T17:40:54.804Z,0
2023-02-14T17:41:35.350Z,0
2023-02-14T17:42:15.807Z,0
2023-02-14T17:42:56.369Z,0
2023-02-14T17:43:36.856Z,0
2023-02-14T17:44:17.352Z,0
2023-02-14T17:51:02.749Z,0
2023-02-14T17:51:43.303Z,0
2023-02-14T17:52:23.846Z,0
2023-02-14T17:53:04.417Z,0
2023-02-14T18:34:38.268Z,0
2023-02-14T18:35:18.420Z,0
2023-02-14T18:35:58.954Z,0
2023-02-14T18:41:22.838Z,0
2023-02-14T18:42:03.330Z,0
2023-02-14T18:42:43.816Z,0
2023-02-14T18:43:24.294Z,0
2023-02-14T18:44:04.842Z,0
2023-02-14T18:44:45.267Z,0
2023-02-14T18:45:25.818Z,0
2023-02-14T18:46:06.371Z,0
2023-02-14T18:46:46.755Z,0
2023-02-14T18:47:27.281Z,0
2023-02-14T18:48:07.751Z,0
2023-02-14T18:55:33.200Z,0
2023-02-14T18:56:13.691Z,0
2023-02-14T18:56:54.206Z,0
2023-02-14T18:57:34.716Z,0
2023-02-14T18:58:15.240Z,0
2023-02-14T18:58:55.915Z,0
2023-02-14T18:59:36.244Z,0
2023-02-14T19:00:16.725Z,0
2023-02-14T19:00:57.272Z,0
2023-02-14T19:01:37.742Z,0
2023-02-14T19:09:03.220Z,0
2023-02-14T19:09:43.689Z,0
2023-02-14T19:10:24.183Z,0
2023-02-14T19:11:04.667Z,0
2023-02-14T19:11:45.157Z,0
2023-02-14T19:12:25.623Z,0
2023-02-14T19:13:06.155Z,0
2023-02-14T19:13:46.617Z,0
2023-02-14T19:14:27.096Z,0
2023-02-14T19:15:07.651Z,0
2023-02-14T19:22:33.003Z,0
2023-02-14T19:23:13.512Z,0
2023-02-14T19:23:53.990Z,0
2023-02-14T19:24:34.453Z,0
2023-02-14T19:25:14.978Z,0
2023-02-14T19:25:55.550Z,0
2023-02-14T19:26:35.973Z,0
2023-02-14T19:27:16.479Z,0
2023-02-14T19:27:56.966Z,0
2023-02-14T19:28:37.442Z,0
2023-02-14T19:33:23.023Z,0
2023-02-14T19:37:03.327Z,0
2023-02-14T19:37:43.678Z,0
2023-02-14T19:38:24.167Z,0
2023-02-14T19:41:47.866Z,0
2023-02-14T19:42:28.371Z,0
2023-02-14T19:43:08.862Z,0
2023-02-14T19:43:49.360Z,0
2023-02-14T19:44:29.861Z,0
2023-02-14T19:45:10.332Z,0
2023-02-14T19:45:50.970Z,0
2023-02-14T19:46:31.262Z,0
2023-02-14T19:47:25.517Z,0
2023-02-14T19:47:52.325Z,0
2023-02-14T19:56:38.687Z,0
2023-02-14T19:57:19.138Z,0
2023-02-14T19:57:59.624Z,0
2023-02-14T19:58:40.139Z,0
2023-02-14T19:59:20.661Z,0
2023-02-14T20:00:01.205Z,0
2023-02-14T20:00:41.619Z,0
2023-02-14T20:01:22.160Z,0
2023-02-14T20:02:02.681Z,0
2023-02-14T20:09:28.039Z,0
2023-02-14T20:10:08.527Z,0
2023-02-14T20:10:48.988Z,0
2023-02-14T20:11:29.482Z,0
2023-02-14T20:12:09.982Z,0
2023-02-14T20:12:50.507Z,0
2023-02-14T20:14:11.505Z,0
2023-02-14T20:14:52.168Z,0
2023-02-14T20:15:32.448Z,0
2023-02-14T20:22:58.048Z,0
2023-02-14T20:24:18.996Z,0
2023-02-14T20:24:59.483Z,0
2023-02-14T20:25:40.012Z,0
2023-02-14T20:26:20.467Z,0
2023-02-14T20:27:00.975Z,0
2023-02-14T20:27:41.464Z,0
2023-02-14T20:28:21.919Z,0
2023-02-14T20:29:02.417Z,0
2023-02-14T20:36:27.795Z,0
2023-02-14T20:37:08.255Z,0
2023-02-14T20:37:48.773Z,0
2023-02-14T20:38:29.264Z,0
2023-02-14T20:39:09.772Z,0
2023-02-14T20:39:50.218Z,0
2023-02-14T20:40:30.764Z,0
2023-02-14T20:41:51.755Z,0
2023-02-14T20:42:32.214Z,0
2023-02-14T20:43:12.712Z,0
2023-02-14T20:50:38.033Z,0
2023-02-14T20:51:18.534Z,0
2023-02-14T20:51:59.063Z,0
2023-02-14T20:52:39.529Z,0
2023-02-14T20:53:20.028Z,0
2023-02-14T20:54:00.531Z,0
2023-02-14T20:54:41.044Z,0
2023-02-14T20:55:21.510Z,0
2023-02-14T20:56:02.076Z,0
2023-02-14T20:58:40.250Z,0
2023-02-14T20:59:20.784Z,0
2023-02-14T21:00:01.207Z,0
2023-02-14T21:05:25.168Z,0
2023-02-14T21:06:05.644Z,0
2023-02-14T21:06:46.137Z,0
2023-02-14T21:07:26.588Z,0
2023-02-14T21:08:07.060Z,0
2023-02-14T21:09:28.076Z,0
2023-02-14T21:10:08.565Z,0
2023-02-14T21:10:49.104Z,0
2023-02-14T21:11:29.627Z,0
2023-02-14T21:18:55.371Z,0
2023-02-14T21:19:35.850Z,0
2023-02-14T21:20:16.388Z,0
2023-02-14T21:20:56.858Z,0
2023-02-14T21:21:37.407Z,0
2023-02-14T21:22:17.839Z,0
2023-02-14T21:22:58.279Z,0
2023-02-14T21:23:38.762Z,0
2023-02-14T21:24:19.238Z,0
2023-02-14T21:24:59.735Z,0
2023-02-14T21:32:25.089Z,0
2023-02-14T21:33:05.606Z,0
2023-02-14T21:33:46.083Z,0
2023-02-14T21:34:26.542Z,0
2023-02-14T21:35:07.034Z,0
2023-02-14T21:35:47.539Z,0
2023-02-14T21:36:28.024Z,0
2023-02-14T21:37:08.588Z,0
2023-02-14T21:37:49.060Z,0
2023-02-14T21:38:29.540Z,0
2023-02-14T21:45:55.065Z,0
2023-02-14T21:46:35.559Z,0
2023-02-14T21:47:16.031Z,0
2023-02-14T21:47:56.570Z,0
2023-02-14T21:48:37.085Z,0
2023-02-14T21:49:17.598Z,0
2023-02-14T21:49:58.104Z,0
2023-02-14T21:50:38.583Z,0
2023-02-14T21:51:19.054Z,0
2023-02-14T21:51:59.585Z,0
2023-02-14T22:00:05.344Z,0
2023-02-14T22:00:45.860Z,0
2023-02-14T22:01:26.380Z,0
2023-02-14T22:02:06.881Z,0
2023-02-14T22:02:47.439Z,0
2023-02-14T22:03:27.904Z,0
2023-02-14T22:04:08.402Z,0
2023-02-14T22:04:48.956Z,0
2023-02-14T22:05:29.441Z,0
2023-02-14T22:06:09.924Z,0
2023-02-14T22:13:35.434Z,0
2023-02-14T22:14:15.988Z,0
2023-02-14T22:14:56.454Z,0
2023-02-14T22:15:37.027Z,0
2023-02-14T22:16:17.433Z,0
2023-02-14T22:16:57.914Z,0
2023-02-14T22:17:38.385Z,0
2023-02-14T22:18:18.854Z,0
2023-02-14T22:18:59.345Z,0
2023-02-14T22:26:24.951Z,0
2023-02-14T22:27:05.449Z,0
2023-02-14T22:27:45.985Z,0
2023-02-14T22:28:26.496Z,0
2023-02-14T22:29:06.930Z,0
2023-02-14T22:29:47.497Z,0
2023-02-14T22:30:28.026Z,0
2023-02-14T22:31:08.646Z,0
2023-02-14T22:31:49.069Z,0
2023-02-14T22:32:29.477Z,0
2023-02-14T22:33:10.018Z,0
2023-02-14T22:39:54.992Z,0
2023-02-14T22:40:35.485Z,0